sensor_id;sensor_type;location;lat;lon;timestamp;P1;durP1;ratioP1;P2;durP2;ratioP2
37451;SDS011;23314;51.114;6.900;2023-05-25T00:01:28;20.57;;;9.60;;
37451;SDS011;23314;51.114;6.900;2023-05-25T00:03:54;18.00;;;8.67;;
37451;SDS011;23314;51.114;6.900;2023-05-25T00:06:20;20.00;;;10.13;;
37451;SDS011;23314;51.114;6.900;2023-05-25T00:08:46;17.07;;;8.97;;
37451;SDS011;23314;51.114;6.900;2023-05-25T00:11:12;18.83;;;8.77;;
37451;SDS011;23314;51.114;6.900;2023-05-25T00:13:38;18.37;;;9.13;;
37451;SDS011;23314;51.114;6.900;2023-05-25T00:16:04;22.87;;;9.70;;
37451;SDS011;23314;51.114;6.900;2023-05-25T00:18:30;21.13;;;9.33;;
37451;SDS011;23314;51.114;6.900;2023-05-25T00:20:57;18.50;;;8.50;;
37451;SDS011;23314;51.114;6.900;2023-05-25T00:23:23;21.43;;;9.67;;
37451;SDS011;23314;51.114;6.900;2023-05-25T00:25:48;18.53;;;9.77;;
37451;SDS011;23314;51.114;6.900;2023-05-25T00:28:14;12.93;;;8.93;;
37451;SDS011;23314;51.114;6.900;2023-05-25T00:30:39;19.73;;;9.93;;
37451;SDS011;23314;51.114;6.900;2023-05-25T00:33:05;21.87;;;9.87;;
37451;SDS011;23314;51.114;6.900;2023-05-25T00:35:30;15.47;;;9.13;;
37451;SDS011;23314;51.114;6.900;2023-05-25T00:37:55;17.70;;;9.30;;
37451;SDS011;23314;51.114;6.900;2023-05-25T00:40:21;16.87;;;9.30;;
37451;SDS011;23314;51.114;6.900;2023-05-25T00:42:46;19.33;;;9.10;;
37451;SDS011;23314;51.114;6.900;2023-05-25T00:45:11;20.17;;;9.70;;
37451;SDS011;23314;51.114;6.900;2023-05-25T00:47:38;19.93;;;9.93;;
37451;SDS011;23314;51.114;6.900;2023-05-25T00:50:04;17.93;;;9.00;;
37451;SDS011;23314;51.114;6.900;2023-05-25T00:52:33;17.87;;;9.20;;
37451;SDS011;23314;51.114;6.900;2023-05-25T00:54:58;21.80;;;10.23;;
37451;SDS011;23314;51.114;6.900;2023-05-25T00:57:26;21.03;;;10.03;;
37451;SDS011;23314;51.114;6.900;2023-05-25T00:59:53;20.47;;;9.43;;
37451;SDS011;23314;51.114;6.900;2023-05-25T01:02:21;21.90;;;10.30;;
37451;SDS011;23314;51.114;6.900;2023-05-25T01:04:51;15.87;;;9.37;;
37451;SDS011;23314;51.114;6.900;2023-05-25T01:07:21;17.07;;;8.93;;
37451;SDS011;23314;51.114;6.900;2023-05-25T01:09:47;15.77;;;9.13;;
37451;SDS011;23314;51.114;6.900;2023-05-25T01:12:18;20.27;;;9.77;;
37451;SDS011;23314;51.114;6.900;2023-05-25T01:14:45;19.00;;;9.27;;
37451;SDS011;23314;51.114;6.900;2023-05-25T01:17:12;19.67;;;9.63;;
37451;SDS011;23314;51.114;6.900;2023-05-25T01:19:39;19.97;;;9.50;;
37451;SDS011;23314;51.114;6.900;2023-05-25T01:22:16;22.60;;;10.27;;
37451;SDS011;23314;51.114;6.900;2023-05-25T01:24:56;16.40;;;9.87;;
37451;SDS011;23314;51.114;6.900;2023-05-25T01:27:31;23.77;;;10.60;;
37451;SDS011;23314;51.114;6.900;2023-05-25T01:30:02;17.33;;;9.83;;
37451;SDS011;23314;51.114;6.900;2023-05-25T01:32:30;17.23;;;9.53;;
37451;SDS011;23314;51.114;6.900;2023-05-25T01:34:56;19.27;;;9.63;;
37451;SDS011;23314;51.114;6.900;2023-05-25T01:37:23;20.53;;;9.80;;
37451;SDS011;23314;51.114;6.900;2023-05-25T01:39:50;19.87;;;10.03;;
37451;SDS011;23314;51.114;6.900;2023-05-25T01:42:15;22.83;;;11.50;;
37451;SDS011;23314;51.114;6.900;2023-05-25T01:44:41;18.30;;;11.03;;
37451;SDS011;23314;51.114;6.900;2023-05-25T01:47:08;22.90;;;10.57;;
37451;SDS011;23314;51.114;6.900;2023-05-25T01:52:21;17.30;;;9.63;;
37451;SDS011;23314;51.114;6.900;2023-05-25T01:54:54;20.40;;;9.97;;
37451;SDS011;23314;51.114;6.900;2023-05-25T01:57:24;24.23;;;11.13;;
37451;SDS011;23314;51.114;6.900;2023-05-25T01:59:51;17.73;;;10.27;;
37451;SDS011;23314;51.114;6.900;2023-05-25T02:02:19;18.70;;;10.43;;
37451;SDS011;23314;51.114;6.900;2023-05-25T02:04:45;24.60;;;11.40;;
37451;SDS011;23314;51.114;6.900;2023-05-25T02:07:11;21.33;;;11.93;;
37451;SDS011;23314;51.114;6.900;2023-05-25T02:09:36;23.83;;;11.20;;
37451;SDS011;23314;51.114;6.900;2023-05-25T02:12:02;23.07;;;11.30;;
37451;SDS011;23314;51.114;6.900;2023-05-25T02:14:28;17.20;;;10.73;;
37451;SDS011;23314;51.114;6.900;2023-05-25T02:16:53;24.77;;;12.20;;
37451;SDS011;23314;51.114;6.900;2023-05-25T02:19:18;25.07;;;11.70;;
37451;SDS011;23314;51.114;6.900;2023-05-25T02:21:44;20.00;;;10.80;;
37451;SDS011;23314;51.114;6.900;2023-05-25T02:24:10;18.63;;;11.30;;
37451;SDS011;23314;51.114;6.900;2023-05-25T02:26:36;25.93;;;12.53;;
37451;SDS011;23314;51.114;6.900;2023-05-25T02:29:02;22.70;;;12.53;;
37451;SDS011;23314;51.114;6.900;2023-05-25T02:31:28;22.80;;;12.07;;
37451;SDS011;23314;51.114;6.900;2023-05-25T02:33:54;29.10;;;14.33;;
37451;SDS011;23314;51.114;6.900;2023-05-25T02:36:20;19.47;;;11.70;;
37451;SDS011;23314;51.114;6.900;2023-05-25T02:38:45;31.37;;;14.27;;
37451;SDS011;23314;51.114;6.900;2023-05-25T02:41:14;23.37;;;12.77;;
37451;SDS011;23314;51.114;6.900;2023-05-25T02:43:40;22.47;;;12.40;;
37451;SDS011;23314;51.114;6.900;2023-05-25T02:46:05;23.03;;;12.40;;
37451;SDS011;23314;51.114;6.900;2023-05-25T02:48:30;27.87;;;14.43;;
37451;SDS011;23314;51.114;6.900;2023-05-25T02:50:56;25.40;;;14.60;;
37451;SDS011;23314;51.114;6.900;2023-05-25T02:53:21;23.73;;;14.27;;
37451;SDS011;23314;51.114;6.900;2023-05-25T02:55:46;24.17;;;13.90;;
37451;SDS011;23314;51.114;6.900;2023-05-25T02:58:12;27.57;;;15.17;;
37451;SDS011;23314;51.114;6.900;2023-05-25T03:00:37;28.13;;;14.87;;
37451;SDS011;23314;51.114;6.900;2023-05-25T03:03:03;26.67;;;13.87;;
37451;SDS011;23314;51.114;6.900;2023-05-25T03:05:28;25.77;;;15.37;;
37451;SDS011;23314;51.114;6.900;2023-05-25T03:07:54;25.80;;;14.53;;
37451;SDS011;23314;51.114;6.900;2023-05-25T03:10:19;28.87;;;15.43;;
37451;SDS011;23314;51.114;6.900;2023-05-25T03:12:44;27.83;;;16.00;;
37451;SDS011;23314;51.114;6.900;2023-05-25T03:15:10;31.53;;;16.17;;
37451;SDS011;23314;51.114;6.900;2023-05-25T03:17:37;28.70;;;15.90;;
37451;SDS011;23314;51.114;6.900;2023-05-25T03:20:02;31.87;;;16.60;;
37451;SDS011;23314;51.114;6.900;2023-05-25T03:22:28;30.23;;;16.80;;
37451;SDS011;23314;51.114;6.900;2023-05-25T03:24:53;33.77;;;16.57;;
37451;SDS011;23314;51.114;6.900;2023-05-25T03:27:18;32.03;;;16.93;;
37451;SDS011;23314;51.114;6.900;2023-05-25T03:29:44;29.17;;;15.83;;
37451;SDS011;23314;51.114;6.900;2023-05-25T03:32:12;36.13;;;17.40;;
37451;SDS011;23314;51.114;6.900;2023-05-25T03:34:37;25.33;;;15.90;;
37451;SDS011;23314;51.114;6.900;2023-05-25T03:37:04;38.07;;;17.13;;
37451;SDS011;23314;51.114;6.900;2023-05-25T03:39:29;29.20;;;16.97;;
37451;SDS011;23314;51.114;6.900;2023-05-25T03:41:55;32.57;;;18.30;;
37451;SDS011;23314;51.114;6.900;2023-05-25T03:44:22;28.23;;;16.67;;
37451;SDS011;23314;51.114;6.900;2023-05-25T03:46:47;37.53;;;17.70;;
37451;SDS011;23314;51.114;6.900;2023-05-25T03:49:12;33.13;;;16.27;;
37451;SDS011;23314;51.114;6.900;2023-05-25T03:51:38;33.90;;;16.23;;
37451;SDS011;23314;51.114;6.900;2023-05-25T03:54:07;32.80;;;16.33;;
37451;SDS011;23314;51.114;6.900;2023-05-25T03:56:32;35.47;;;16.83;;
37451;SDS011;23314;51.114;6.900;2023-05-25T03:58:58;26.90;;;14.27;;
37451;SDS011;23314;51.114;6.900;2023-05-25T04:01:24;34.93;;;15.73;;
37451;SDS011;23314;51.114;6.900;2023-05-25T04:03:50;29.07;;;14.30;;
37451;SDS011;23314;51.114;6.900;2023-05-25T04:06:17;34.30;;;15.03;;
37451;SDS011;23314;51.114;6.900;2023-05-25T04:08:43;25.30;;;14.03;;
37451;SDS011;23314;51.114;6.900;2023-05-25T04:11:09;24.77;;;13.63;;
37451;SDS011;23314;51.114;6.900;2023-05-25T04:13:35;26.13;;;14.27;;
37451;SDS011;23314;51.114;6.900;2023-05-25T04:16:01;27.20;;;14.57;;
37451;SDS011;23314;51.114;6.900;2023-05-25T04:18:26;28.63;;;14.43;;
37451;SDS011;23314;51.114;6.900;2023-05-25T04:20:52;30.60;;;14.07;;
37451;SDS011;23314;51.114;6.900;2023-05-25T04:23:19;30.87;;;13.37;;
37451;SDS011;23314;51.114;6.900;2023-05-25T04:25:45;33.47;;;14.60;;
37451;SDS011;23314;51.114;6.900;2023-05-25T04:28:11;29.50;;;13.50;;
37451;SDS011;23314;51.114;6.900;2023-05-25T04:30:36;26.40;;;14.07;;
37451;SDS011;23314;51.114;6.900;2023-05-25T04:33:03;24.97;;;12.70;;
37451;SDS011;23314;51.114;6.900;2023-05-25T04:35:29;19.10;;;11.07;;
37451;SDS011;23314;51.114;6.900;2023-05-25T04:37:55;28.53;;;13.40;;
37451;SDS011;23314;51.114;6.900;2023-05-25T04:40:21;28.30;;;11.97;;
37451;SDS011;23314;51.114;6.900;2023-05-25T04:42:46;24.27;;;11.67;;
37451;SDS011;23314;51.114;6.900;2023-05-25T04:45:12;28.77;;;12.47;;
37451;SDS011;23314;51.114;6.900;2023-05-25T04:47:41;24.97;;;11.77;;
37451;SDS011;23314;51.114;6.900;2023-05-25T04:50:07;25.33;;;11.83;;
37451;SDS011;23314;51.114;6.900;2023-05-25T04:52:34;21.03;;;11.40;;
37451;SDS011;23314;51.114;6.900;2023-05-25T04:55:00;20.50;;;11.30;;
37451;SDS011;23314;51.114;6.900;2023-05-25T04:57:27;26.63;;;11.97;;
37451;SDS011;23314;51.114;6.900;2023-05-25T04:59:53;20.70;;;11.43;;
37451;SDS011;23314;51.114;6.900;2023-05-25T05:02:18;25.60;;;12.13;;
37451;SDS011;23314;51.114;6.900;2023-05-25T05:04:44;24.37;;;11.67;;
37451;SDS011;23314;51.114;6.900;2023-05-25T05:07:09;25.67;;;11.97;;
37451;SDS011;23314;51.114;6.900;2023-05-25T05:09:36;20.87;;;12.87;;
37451;SDS011;23314;51.114;6.900;2023-05-25T05:12:01;29.77;;;12.40;;
37451;SDS011;23314;51.114;6.900;2023-05-25T05:14:27;27.13;;;13.03;;
37451;SDS011;23314;51.114;6.900;2023-05-25T05:16:52;23.77;;;12.73;;
37451;SDS011;23314;51.114;6.900;2023-05-25T05:19:17;27.37;;;12.87;;
37451;SDS011;23314;51.114;6.900;2023-05-25T05:21:43;23.43;;;12.23;;
37451;SDS011;23314;51.114;6.900;2023-05-25T05:24:08;23.67;;;12.53;;
37451;SDS011;23314;51.114;6.900;2023-05-25T05:26:33;22.30;;;13.57;;
37451;SDS011;23314;51.114;6.900;2023-05-25T05:28:59;27.33;;;12.93;;
37451;SDS011;23314;51.114;6.900;2023-05-25T05:31:24;29.57;;;14.20;;
37451;SDS011;23314;51.114;6.900;2023-05-25T05:33:51;22.20;;;12.90;;
37451;SDS011;23314;51.114;6.900;2023-05-25T05:36:16;30.70;;;15.10;;
37451;SDS011;23314;51.114;6.900;2023-05-25T05:38:42;22.97;;;13.77;;
37451;SDS011;23314;51.114;6.900;2023-05-25T05:41:10;28.70;;;13.87;;
37451;SDS011;23314;51.114;6.900;2023-05-25T05:43:38;24.43;;;14.03;;
37451;SDS011;23314;51.114;6.900;2023-05-25T05:46:06;29.83;;;14.63;;
37451;SDS011;23314;51.114;6.900;2023-05-25T05:48:32;27.57;;;13.80;;
37451;SDS011;23314;51.114;6.900;2023-05-25T05:50:57;28.47;;;14.50;;
37451;SDS011;23314;51.114;6.900;2023-05-25T05:53:22;30.23;;;15.10;;
37451;SDS011;23314;51.114;6.900;2023-05-25T05:55:48;27.73;;;14.03;;
37451;SDS011;23314;51.114;6.900;2023-05-25T05:58:17;26.70;;;13.90;;
37451;SDS011;23314;51.114;6.900;2023-05-25T06:00:43;26.80;;;13.63;;
37451;SDS011;23314;51.114;6.900;2023-05-25T06:03:08;30.53;;;13.87;;
37451;SDS011;23314;51.114;6.900;2023-05-25T06:05:33;25.57;;;14.67;;
37451;SDS011;23314;51.114;6.900;2023-05-25T06:07:59;31.47;;;14.50;;
37451;SDS011;23314;51.114;6.900;2023-05-25T06:10:25;24.93;;;13.67;;
37451;SDS011;23314;51.114;6.900;2023-05-25T06:12:50;22.90;;;14.17;;
37451;SDS011;23314;51.114;6.900;2023-05-25T06:15:16;28.80;;;14.73;;
37451;SDS011;23314;51.114;6.900;2023-05-25T06:17:42;25.77;;;13.70;;
37451;SDS011;23314;51.114;6.900;2023-05-25T06:20:08;27.60;;;14.37;;
37451;SDS011;23314;51.114;6.900;2023-05-25T06:22:34;26.20;;;13.60;;
37451;SDS011;23314;51.114;6.900;2023-05-25T06:24:59;24.30;;;14.10;;
37451;SDS011;23314;51.114;6.900;2023-05-25T06:27:25;25.80;;;15.50;;
37451;SDS011;23314;51.114;6.900;2023-05-25T06:29:50;30.03;;;15.30;;
37451;SDS011;23314;51.114;6.900;2023-05-25T06:32:16;24.53;;;13.87;;
37451;SDS011;23314;51.114;6.900;2023-05-25T06:34:41;27.10;;;13.43;;
37451;SDS011;23314;51.114;6.900;2023-05-25T06:37:06;25.00;;;14.63;;
37451;SDS011;23314;51.114;6.900;2023-05-25T06:39:32;30.10;;;14.33;;
37451;SDS011;23314;51.114;6.900;2023-05-25T06:41:57;29.23;;;14.90;;
37451;SDS011;23314;51.114;6.900;2023-05-25T06:44:22;26.13;;;14.40;;
37451;SDS011;23314;51.114;6.900;2023-05-25T06:46:48;27.00;;;14.70;;
37451;SDS011;23314;51.114;6.900;2023-05-25T06:49:13;29.53;;;14.83;;
37451;SDS011;23314;51.114;6.900;2023-05-25T06:51:38;24.63;;;14.47;;
37451;SDS011;23314;51.114;6.900;2023-05-25T06:54:03;27.60;;;14.83;;
37451;SDS011;23314;51.114;6.900;2023-05-25T06:56:29;24.00;;;14.50;;
37451;SDS011;23314;51.114;6.900;2023-05-25T06:58:54;24.03;;;13.73;;
37451;SDS011;23314;51.114;6.900;2023-05-25T07:01:19;24.27;;;14.53;;
37451;SDS011;23314;51.114;6.900;2023-05-25T07:03:45;22.10;;;13.93;;
37451;SDS011;23314;51.114;6.900;2023-05-25T07:06:10;26.73;;;14.00;;
37451;SDS011;23314;51.114;6.900;2023-05-25T07:08:36;28.73;;;13.73;;
37451;SDS011;23314;51.114;6.900;2023-05-25T07:11:02;19.90;;;11.93;;
37451;SDS011;23314;51.114;6.900;2023-05-25T07:13:27;24.40;;;12.47;;
37451;SDS011;23314;51.114;6.900;2023-05-25T07:15:53;21.70;;;13.13;;
37451;SDS011;23314;51.114;6.900;2023-05-25T07:18:18;20.17;;;11.83;;
37451;SDS011;23314;51.114;6.900;2023-05-25T07:20:43;23.97;;;12.03;;
37451;SDS011;23314;51.114;6.900;2023-05-25T07:23:09;23.00;;;13.20;;
37451;SDS011;23314;51.114;6.900;2023-05-25T07:25:36;22.70;;;12.50;;
37451;SDS011;23314;51.114;6.900;2023-05-25T07:28:02;26.67;;;13.07;;
37451;SDS011;23314;51.114;6.900;2023-05-25T07:30:27;28.60;;;13.77;;
37451;SDS011;23314;51.114;6.900;2023-05-25T07:32:52;20.80;;;12.03;;
37451;SDS011;23314;51.114;6.900;2023-05-25T07:35:18;20.10;;;12.60;;
37451;SDS011;23314;51.114;6.900;2023-05-25T07:37:43;23.00;;;12.63;;
37451;SDS011;23314;51.114;6.900;2023-05-25T07:40:09;21.10;;;11.00;;
37451;SDS011;23314;51.114;6.900;2023-05-25T07:42:34;23.30;;;10.97;;
37451;SDS011;23314;51.114;6.900;2023-05-25T07:45:00;17.90;;;10.80;;
37451;SDS011;23314;51.114;6.900;2023-05-25T07:47:26;25.53;;;12.10;;
37451;SDS011;23314;51.114;6.900;2023-05-25T07:49:51;23.87;;;11.67;;
37451;SDS011;23314;51.114;6.900;2023-05-25T07:52:17;17.73;;;11.03;;
37451;SDS011;23314;51.114;6.900;2023-05-25T07:54:43;20.03;;;11.57;;
37451;SDS011;23314;51.114;6.900;2023-05-25T07:57:09;14.87;;;10.20;;
37451;SDS011;23314;51.114;6.900;2023-05-25T07:59:34;22.10;;;12.20;;
37451;SDS011;23314;51.114;6.900;2023-05-25T08:02:00;19.93;;;11.30;;
37451;SDS011;23314;51.114;6.900;2023-05-25T08:04:25;13.73;;;8.27;;
37451;SDS011;23314;51.114;6.900;2023-05-25T08:06:50;14.17;;;9.53;;
37451;SDS011;23314;51.114;6.900;2023-05-25T08:09:16;13.23;;;8.47;;
37451;SDS011;23314;51.114;6.900;2023-05-25T08:11:41;17.90;;;7.67;;
37451;SDS011;23314;51.114;6.900;2023-05-25T08:14:09;17.57;;;8.37;;
37451;SDS011;23314;51.114;6.900;2023-05-25T08:16:34;17.10;;;8.67;;
37451;SDS011;23314;51.114;6.900;2023-05-25T08:19:00;14.40;;;9.40;;
37451;SDS011;23314;51.114;6.900;2023-05-25T08:21:26;17.37;;;9.63;;
37451;SDS011;23314;51.114;6.900;2023-05-25T08:23:54;18.37;;;9.33;;
37451;SDS011;23314;51.114;6.900;2023-05-25T08:26:20;20.13;;;9.40;;
37451;SDS011;23314;51.114;6.900;2023-05-25T08:28:46;19.33;;;9.37;;
37451;SDS011;23314;51.114;6.900;2023-05-25T08:31:12;14.07;;;9.07;;
37451;SDS011;23314;51.114;6.900;2023-05-25T08:33:37;19.47;;;9.07;;
37451;SDS011;23314;51.114;6.900;2023-05-25T08:36:02;17.37;;;9.43;;
37451;SDS011;23314;51.114;6.900;2023-05-25T08:38:28;19.57;;;9.10;;
37451;SDS011;23314;51.114;6.900;2023-05-25T08:40:59;15.60;;;8.57;;
37451;SDS011;23314;51.114;6.900;2023-05-25T08:43:28;15.63;;;8.40;;
37451;SDS011;23314;51.114;6.900;2023-05-25T08:45:54;16.87;;;8.20;;
37451;SDS011;23314;51.114;6.900;2023-05-25T08:48:25;12.90;;;7.80;;
37451;SDS011;23314;51.114;6.900;2023-05-25T08:50:54;18.23;;;8.27;;
37451;SDS011;23314;51.114;6.900;2023-05-25T08:53:24;14.07;;;8.10;;
37451;SDS011;23314;51.114;6.900;2023-05-25T08:55:51;9.67;;;7.87;;
37451;SDS011;23314;51.114;6.900;2023-05-25T08:58:18;14.33;;;8.33;;
37451;SDS011;23314;51.114;6.900;2023-05-25T09:00:49;13.60;;;8.37;;
37451;SDS011;23314;51.114;6.900;2023-05-25T09:03:19;15.40;;;8.80;;
37451;SDS011;23314;51.114;6.900;2023-05-25T09:05:45;14.07;;;8.50;;
37451;SDS011;23314;51.114;6.900;2023-05-25T09:08:11;16.30;;;7.83;;
37451;SDS011;23314;51.114;6.900;2023-05-25T09:10:37;15.77;;;8.87;;
37451;SDS011;23314;51.114;6.900;2023-05-25T09:13:03;14.03;;;8.13;;
37451;SDS011;23314;51.114;6.900;2023-05-25T09:15:30;15.87;;;8.30;;
37451;SDS011;23314;51.114;6.900;2023-05-25T09:17:58;11.97;;;7.57;;
37451;SDS011;23314;51.114;6.900;2023-05-25T09:20:23;13.33;;;8.30;;
37451;SDS011;23314;51.114;6.900;2023-05-25T09:22:55;13.00;;;8.30;;
37451;SDS011;23314;51.114;6.900;2023-05-25T09:25:21;16.73;;;8.30;;
37451;SDS011;23314;51.114;6.900;2023-05-25T09:27:50;13.20;;;7.73;;
37451;SDS011;23314;51.114;6.900;2023-05-25T09:30:15;15.20;;;8.40;;
37451;SDS011;23314;51.114;6.900;2023-05-25T09:32:41;13.20;;;8.20;;
37451;SDS011;23314;51.114;6.900;2023-05-25T09:35:06;17.07;;;8.20;;
37451;SDS011;23314;51.114;6.900;2023-05-25T09:37:32;19.40;;;8.00;;
37451;SDS011;23314;51.114;6.900;2023-05-25T09:39:59;12.60;;;8.38;;
37451;SDS011;23314;51.114;6.900;2023-05-25T09:42:24;14.60;;;9.40;;
37451;SDS011;23314;51.114;6.900;2023-05-25T09:44:49;12.43;;;8.57;;
37451;SDS011;23314;51.114;6.900;2023-05-25T09:47:15;13.10;;;8.98;;
37451;SDS011;23314;51.114;6.900;2023-05-25T09:49:42;12.70;;;10.13;;
37451;SDS011;23314;51.114;6.900;2023-05-25T09:52:11;14.23;;;9.93;;
37451;SDS011;23314;51.114;6.900;2023-05-25T09:54:37;17.33;;;10.97;;
37451;SDS011;23314;51.114;6.900;2023-05-25T09:57:03;14.80;;;11.03;;
37451;SDS011;23314;51.114;6.900;2023-05-25T09:59:30;16.67;;;10.87;;
37451;SDS011;23314;51.114;6.900;2023-05-25T10:01:56;15.60;;;11.23;;
37451;SDS011;23314;51.114;6.900;2023-05-25T10:04:22;20.43;;;9.97;;
37451;SDS011;23314;51.114;6.900;2023-05-25T10:06:47;16.20;;;10.90;;
37451;SDS011;23314;51.114;6.900;2023-05-25T10:09:19;14.30;;;11.55;;
37451;SDS011;23314;51.114;6.900;2023-05-25T10:11:45;17.10;;;12.23;;
37451;SDS011;23314;51.114;6.900;2023-05-25T10:14:12;19.83;;;12.83;;
37451;SDS011;23314;51.114;6.900;2023-05-25T10:16:39;18.23;;;13.20;;
37451;SDS011;23314;51.114;6.900;2023-05-25T10:19:13;16.43;;;12.60;;
37451;SDS011;23314;51.114;6.900;2023-05-25T10:21:46;15.90;;;13.03;;
37451;SDS011;23314;51.114;6.900;2023-05-25T10:24:23;19.43;;;12.43;;
37451;SDS011;23314;51.114;6.900;2023-05-25T10:26:54;14.60;;;11.97;;
37451;SDS011;23314;51.114;6.900;2023-05-25T10:29:25;13.23;;;11.87;;
37451;SDS011;23314;51.114;6.900;2023-05-25T10:31:52;16.77;;;13.30;;
37451;SDS011;23314;51.114;6.900;2023-05-25T10:34:18;17.83;;;13.00;;
37451;SDS011;23314;51.114;6.900;2023-05-25T10:36:44;13.30;;;10.70;;
37451;SDS011;23314;51.114;6.900;2023-05-25T10:39:10;15.38;;;9.93;;
37451;SDS011;23314;51.114;6.900;2023-05-25T10:41:36;14.88;;;9.65;;
37451;SDS011;23314;51.114;6.900;2023-05-25T10:44:01;13.57;;;9.23;;
37451;SDS011;23314;51.114;6.900;2023-05-25T10:46:27;11.10;;;9.52;;
37451;SDS011;23314;51.114;6.900;2023-05-25T10:48:53;14.43;;;9.40;;
37451;SDS011;23314;51.114;6.900;2023-05-25T10:51:38;12.88;;;7.75;;
37451;SDS011;23314;51.114;6.900;2023-05-25T10:54:05;10.32;;;7.53;;
37451;SDS011;23314;51.114;6.900;2023-05-25T10:56:30;10.68;;;7.03;;
37451;SDS011;23314;51.114;6.900;2023-05-25T10:58:56;10.23;;;6.80;;
37451;SDS011;23314;51.114;6.900;2023-05-25T11:01:21;10.57;;;5.75;;
37451;SDS011;23314;51.114;6.900;2023-05-25T11:03:50;9.07;;;5.45;;
37451;SDS011;23314;51.114;6.900;2023-05-25T11:06:20;9.73;;;5.82;;
37451;SDS011;23314;51.114;6.900;2023-05-25T11:08:47;7.60;;;4.65;;
37451;SDS011;23314;51.114;6.900;2023-05-25T11:11:13;10.10;;;4.90;;
37451;SDS011;23314;51.114;6.900;2023-05-25T11:13:43;10.98;;;5.55;;
37451;SDS011;23314;51.114;6.900;2023-05-25T11:18:55;11.80;;;5.47;;
37451;SDS011;23314;51.114;6.900;2023-05-25T11:26:35;7.75;;;4.50;;
37451;SDS011;23314;51.114;6.900;2023-05-25T11:29:10;9.30;;;5.60;;
37451;SDS011;23314;51.114;6.900;2023-05-25T11:31:37;10.40;;;4.47;;
37451;SDS011;23314;51.114;6.900;2023-05-25T11:34:03;9.18;;;4.55;;
37451;SDS011;23314;51.114;6.900;2023-05-25T11:36:29;9.48;;;4.80;;
37451;SDS011;23314;51.114;6.900;2023-05-25T11:38:57;7.40;;;4.65;;
37451;SDS011;23314;51.114;6.900;2023-05-25T11:41:25;8.18;;;4.97;;
37451;SDS011;23314;51.114;6.900;2023-05-25T11:43:52;10.70;;;5.53;;
37451;SDS011;23314;51.114;6.900;2023-05-25T11:46:18;8.48;;;4.78;;
37451;SDS011;23314;51.114;6.900;2023-05-25T11:48:51;10.38;;;4.40;;
37451;SDS011;23314;51.114;6.900;2023-05-25T11:51:23;11.98;;;5.82;;
37451;SDS011;23314;51.114;6.900;2023-05-25T11:53:49;9.13;;;4.55;;
37451;SDS011;23314;51.114;6.900;2023-05-25T11:56:16;8.85;;;4.72;;
37451;SDS011;23314;51.114;6.900;2023-05-25T11:58:43;8.15;;;4.63;;
37451;SDS011;23314;51.114;6.900;2023-05-25T12:01:15;12.73;;;5.18;;
37451;SDS011;23314;51.114;6.900;2023-05-25T12:03:45;6.70;;;4.70;;
37451;SDS011;23314;51.114;6.900;2023-05-25T12:06:28;11.10;;;4.82;;
37451;SDS011;23314;51.114;6.900;2023-05-25T12:08:55;10.13;;;5.40;;
37451;SDS011;23314;51.114;6.900;2023-05-25T12:11:31;7.38;;;4.78;;
37451;SDS011;23314;51.114;6.900;2023-05-25T12:13:57;7.50;;;5.10;;
37451;SDS011;23314;51.114;6.900;2023-05-25T12:16:24;7.40;;;4.85;;
37451;SDS011;23314;51.114;6.900;2023-05-25T12:18:50;7.88;;;5.13;;
37451;SDS011;23314;51.114;6.900;2023-05-25T12:21:17;7.55;;;5.10;;
37451;SDS011;23314;51.114;6.900;2023-05-25T12:23:44;11.88;;;5.25;;
37451;SDS011;23314;51.114;6.900;2023-05-25T12:26:10;6.63;;;4.97;;
37451;SDS011;23314;51.114;6.900;2023-05-25T12:28:37;12.80;;;5.85;;
37451;SDS011;23314;51.114;6.900;2023-05-25T12:34:01;16.50;;;7.07;;
37451;SDS011;23314;51.114;6.900;2023-05-25T12:36:45;9.82;;;6.22;;
37451;SDS011;23314;51.114;6.900;2023-05-25T12:39:16;10.32;;;5.85;;
37451;SDS011;23314;51.114;6.900;2023-05-25T12:41:55;13.50;;;6.45;;
37451;SDS011;23314;51.114;6.900;2023-05-25T12:44:26;11.10;;;5.68;;
37451;SDS011;23314;51.114;6.900;2023-05-25T12:47:17;10.38;;;6.28;;
37451;SDS011;23314;51.114;6.900;2023-05-25T12:49:50;12.45;;;6.90;;
37451;SDS011;23314;51.114;6.900;2023-05-25T12:52:33;9.63;;;6.38;;
37451;SDS011;23314;51.114;6.900;2023-05-25T12:55:17;10.60;;;6.40;;
37451;SDS011;23314;51.114;6.900;2023-05-25T12:57:43;11.40;;;5.90;;
37451;SDS011;23314;51.114;6.900;2023-05-25T13:00:10;13.38;;;5.65;;
37451;SDS011;23314;51.114;6.900;2023-05-25T13:02:36;10.23;;;5.97;;
37451;SDS011;23314;51.114;6.900;2023-05-25T13:05:01;10.73;;;6.63;;
37451;SDS011;23314;51.114;6.900;2023-05-25T13:07:26;11.18;;;6.13;;
37451;SDS011;23314;51.114;6.900;2023-05-25T13:09:52;11.70;;;7.00;;
37451;SDS011;23314;51.114;6.900;2023-05-25T13:12:18;7.97;;;6.22;;
37451;SDS011;23314;51.114;6.900;2023-05-25T13:14:43;8.90;;;6.45;;
37451;SDS011;23314;51.114;6.900;2023-05-25T13:17:09;8.75;;;6.13;;
37451;SDS011;23314;51.114;6.900;2023-05-25T13:19:34;11.73;;;6.72;;
37451;SDS011;23314;51.114;6.900;2023-05-25T13:22:00;14.38;;;7.47;;
37451;SDS011;23314;51.114;6.900;2023-05-25T13:24:25;7.38;;;6.50;;
37451;SDS011;23314;51.114;6.900;2023-05-25T13:26:51;9.68;;;6.18;;
37451;SDS011;23314;51.114;6.900;2023-05-25T13:29:17;8.57;;;6.00;;
37451;SDS011;23314;51.114;6.900;2023-05-25T13:31:43;9.73;;;6.78;;
37451;SDS011;23314;51.114;6.900;2023-05-25T13:34:08;10.98;;;6.38;;
37451;SDS011;23314;51.114;6.900;2023-05-25T13:36:34;11.68;;;6.07;;
37451;SDS011;23314;51.114;6.900;2023-05-25T13:39:00;10.00;;;6.25;;
37451;SDS011;23314;51.114;6.900;2023-05-25T13:41:25;10.30;;;6.72;;
37451;SDS011;23314;51.114;6.900;2023-05-25T13:43:52;10.82;;;7.15;;
37451;SDS011;23314;51.114;6.900;2023-05-25T13:46:17;9.00;;;6.95;;
37451;SDS011;23314;51.114;6.900;2023-05-25T13:48:43;8.60;;;6.38;;
37451;SDS011;23314;51.114;6.900;2023-05-25T13:51:12;12.35;;;6.50;;
37451;SDS011;23314;51.114;6.900;2023-05-25T13:53:39;7.68;;;6.68;;
37451;SDS011;23314;51.114;6.900;2023-05-25T13:56:04;8.85;;;6.70;;
37451;SDS011;23314;51.114;6.900;2023-05-25T13:58:30;11.90;;;6.63;;
37451;SDS011;23314;51.114;6.900;2023-05-25T14:00:55;10.55;;;6.28;;
37451;SDS011;23314;51.114;6.900;2023-05-25T14:03:21;12.75;;;7.65;;
37451;SDS011;23314;51.114;6.900;2023-05-25T14:05:46;10.52;;;7.80;;
37451;SDS011;23314;51.114;6.900;2023-05-25T14:08:11;8.07;;;6.78;;
37451;SDS011;23314;51.114;6.900;2023-05-25T14:10:37;12.60;;;7.53;;
37451;SDS011;23314;51.114;6.900;2023-05-25T14:13:03;12.15;;;7.93;;
37451;SDS011;23314;51.114;6.900;2023-05-25T14:15:28;11.55;;;6.95;;
37451;SDS011;23314;51.114;6.900;2023-05-25T14:17:53;10.30;;;7.40;;
37451;SDS011;23314;51.114;6.900;2023-05-25T14:20:19;12.05;;;9.57;;
37451;SDS011;23314;51.114;6.900;2023-05-25T14:22:49;13.98;;;9.48;;
37451;SDS011;23314;51.114;6.900;2023-05-25T14:25:15;9.57;;;8.50;;
37451;SDS011;23314;51.114;6.900;2023-05-25T14:27:40;10.40;;;8.10;;
37451;SDS011;23314;51.114;6.900;2023-05-25T14:30:06;13.77;;;9.07;;
37451;SDS011;23314;51.114;6.900;2023-05-25T14:32:32;10.30;;;7.28;;
37451;SDS011;23314;51.114;6.900;2023-05-25T14:34:57;9.80;;;6.10;;
37451;SDS011;23314;51.114;6.900;2023-05-25T14:37:22;8.98;;;6.32;;
37451;SDS011;23314;51.114;6.900;2023-05-25T14:39:47;14.27;;;6.57;;